Time;durP1;ratioP1;P1;durP2;ratioP2;P2;SDS_P1;SDS_P2;PMS_P1;PMS_P2;Temp;Humidity;BMP_temperature;BMP_pressure;BME280_temperature;BME280_humidity;BME280_pressure;Samples;Min_cycle;Max_cycle;Signal;HPM_P1;HPM_P2
2024/03/18 00:00:18;;;;;;;0.40;0.40;;;;;;;8.39;82.84;97007.09;5040555;28;20088;-66
2024/03/18 00:02:46;;;;;;;0.40;0.40;;;;;;;8.07;81.90;96955.00;5040514;28;20056;-66
2024/03/18 00:05:14;;;;;;;0.40;0.40;;;;;;;8.46;81.54;97006.44;5024009;28;20063;-66
2024/03/18 00:07:40;;;;;;;0.40;0.40;;;;;;;7.39;81.75;96831.19;5057112;28;20061;-66
2024/03/18 00:10:10;;;;;;;0.40;0.40;;;;;;;8.52;82.15;97005.03;5056861;28;20061;-67
2024/03/18 00:12:41;;;;;;;0.40;0.40;;;;;;;7.86;81.13;96894.59;5024069;28;20048;-66
2024/03/18 00:15:09;;;;;;;0.40;0.40;;;;;;;7.65;81.09;96894.03;5040848;28;20304;-66
2024/03/18 00:17:35;;;;;;;0.50;0.50;;;;;;;8.32;82.11;97006.09;5024484;28;20053;-67
2024/03/18 00:20:05;;;;;;;0.40;0.40;;;;;;;8.42;81.55;96989.00;5041078;28;20057;-68
2024/03/18 00:22:31;;;;;;;0.40;0.40;;;;;;;8.22;80.86;97025.94;5027798;28;20443;-67
2024/03/18 00:24:57;;;;;;;0.40;0.40;;;;;;;8.37;80.18;96978.25;5044620;28;20053;-67
2024/03/18 00:27:23;;;;;;;0.45;0.45;;;;;;;8.27;80.15;96976.81;5045245;28;20182;-66
2024/03/18 00:29:49;;;;;;;0.40;0.40;;;;;;;8.27;80.17;96976.00;5044694;28;20523;-65
2024/03/18 00:32:15;;;;;;;0.40;0.40;;;;;;;8.25;80.03;96975.59;5044496;28;20487;-66
2024/03/18 00:34:40;;;;;;;0.40;0.40;;;;;;;8.15;80.64;96976.09;5044350;28;20093;-66
2024/03/18 00:37:06;;;;;;;0.40;0.40;;;;;;;8.00;81.19;96971.38;5044108;28;20061;-66
2024/03/18 00:39:32;;;;;;;0.40;0.40;;;;;;;7.15;81.99;96847.88;5027100;28;20048;-67
2024/03/18 00:41:59;;;;;;;0.40;0.40;;;;;;;7.17;82.98;96872.31;5027801;28;20056;-66
2024/03/18 00:44:26;;;;;;;0.40;0.40;;;;;;;7.76;83.86;96968.78;5027346;28;20057;-66
2024/03/18 00:46:53;;;;;;;0.40;0.40;;;;;;;7.80;84.19;96980.69;5043958;28;20065;-65
2024/03/18 00:49:19;;;;;;;0.40;0.40;;;;;;;7.66;84.82;96968.13;5043946;28;20053;-66
2024/03/18 00:51:44;;;;;;;0.40;0.40;;;;;;;7.53;84.64;96941.78;5043924;28;20060;-65
2024/03/18 00:54:10;;;;;;;0.40;0.40;;;;;;;7.63;85.52;96968.81;5027667;28;20144;-66
2024/03/18 00:56:39;;;;;;;0.32;0.32;;;;;;;7.31;85.56;96917.56;5044322;28;20052;-67
2024/03/18 00:59:05;;;;;;;0.30;0.30;;;;;;;7.70;85.47;96959.94;5044432;28;20053;-67
2024/03/18 01:01:35;;;;;;;0.40;0.40;;;;;;;6.60;85.65;97072.75;5026939;28;20518;-66
2024/03/18 01:04:03;;;;;;;0.40;0.40;;;;;;;7.65;85.59;96966.53;5043925;28;20543;-66
2024/03/18 01:06:29;;;;;;;0.40;0.40;;;;;;;7.03;84.77;96860.91;5043702;28;20057;-67
2024/03/18 01:08:55;;;;;;;0.40;0.40;;;;;;;7.61;84.30;96964.81;5026855;28;20552;-66
2024/03/18 01:11:21;;;;;;;0.30;0.30;;;;;;;7.48;84.29;96961.34;5044029;28;20135;-67
2024/03/18 01:13:48;;;;;;;0.30;0.30;;;;;;;7.33;84.30;96953.81;5043565;28;20191;-66
2024/03/18 01:16:14;;;;;;;0.40;0.40;;;;;;;7.40;83.87;96953.22;5027002;28;20057;-66
2024/03/18 01:18:41;;;;;;;0.40;0.40;;;;;;;7.30;84.09;96954.53;5060249;28;20076;-67
2024/03/18 01:21:07;;;;;;;0.40;0.40;;;;;;;7.17;83.82;96965.97;5043785;28;20049;-67
2024/03/18 01:23:33;;;;;;;0.40;0.40;;;;;;;6.97;84.67;96928.41;5027169;28;20053;-66
2024/03/18 01:25:59;;;;;;;0.40;0.40;;;;;;;7.09;84.50;96934.66;5060309;28;20052;-66
2024/03/18 01:28:24;;;;;;;0.40;0.40;;;;;;;6.68;84.18;96860.72;5027504;28;20132;-66
2024/03/18 01:30:51;;;;;;;0.30;0.30;;;;;;;7.17;84.66;96955.75;5026765;28;20057;-66
2024/03/18 01:33:16;;;;;;;0.40;0.40;;;;;;;7.07;84.79;96955.44;5043145;28;20064;-67
2024/03/18 01:35:42;;;;;;;0.32;0.32;;;;;;;7.15;84.76;96951.72;5042847;28;20052;-66
2024/03/18 01:38:08;;;;;;;0.30;0.30;;;;;;;7.21;83.91;96951.13;5043095;28;20064;-66
2024/03/18 01:40:34;;;;;;;0.30;0.30;;;;;;;7.07;82.73;96934.19;5043057;28;20053;-66
2024/03/18 01:43:00;;;;;;;0.30;0.30;;;;;;;6.97;82.95;96928.41;5026245;28;20136;-66
2024/03/18 01:45:26;;;;;;;0.40;0.40;;;;;;;6.56;83.06;96866.25;5042484;28;20049;-66
2024/03/18 01:47:52;;;;;;;0.30;0.30;;;;;;;6.86;84.24;96944.59;5042783;28;20087;-67
2024/03/18 01:50:19;;;;;;;0.40;0.40;;;;;;;6.89;84.19;96943.13;5042597;28;20060;-66
2024/03/18 01:52:48;;;;;;;0.30;0.30;;;;;;;6.88;83.76;96947.81;5042860;28;20057;-65
2024/03/18 01:55:15;;;;;;;0.40;0.40;;;;;;;6.84;83.43;96946.91;5042911;28;20060;-66
2024/03/18 01:57:41;;;;;;;0.40;0.40;;;;;;;6.72;84.06;96937.88;5042817;28;20061;-66
2024/03/18 02:00:15;;;;;;;0.30;0.30;;;;;;;6.73;84.13;96951.31;5042935;28;20091;-66
2024/03/18 02:02:44;;;;;;;0.40;0.40;;;;;;;6.07;83.07;96840.81;5043431;28;20061;-66
2024/03/18 02:05:10;;;;;;;0.30;0.30;;;;;;;6.68;83.63;96946.03;5043364;28;20068;-67
2024/03/18 02:07:37;;;;;;;0.30;0.30;;;;;;;6.66;83.15;96940.06;5026639;28;20295;-66
2024/03/18 02:10:09;;;;;;;0.30;0.30;;;;;;;6.65;83.75;96943.97;5025942;28;20112;-66
2024/03/18 02:12:37;;;;;;;0.38;0.38;;;;;;;6.02;83.90;96859.50;5039109;28;20508;-66
2024/03/18 02:15:04;;;;;;;0.30;0.30;;;;;;;6.55;84.35;96938.13;5038624;28;20582;-66
2024/03/18 02:17:29;;;;;;;0.30;0.30;;;;;;;6.53;83.63;96941.22;5038909;28;20057;-66
2024/03/18 02:19:55;;;;;;;0.30;0.30;;;;;;;6.48;83.97;96935.97;5022469;28;20543;-66
2024/03/18 02:22:22;;;;;;;0.30;0.30;;;;;;;6.52;84.69;96933.31;5022136;28;20568;-66
2024/03/18 02:24:47;;;;;;;0.30;0.30;;;;;;;6.51;83.86;96942.75;5038951;28;20061;-66
2024/03/18 02:27:14;;;;;;;0.30;0.30;;;;;;;6.43;83.53;96943.66;5039005;28;20056;-66
2024/03/18 02:29:40;;;;;;;0.30;0.30;;;;;;;5.77;85.35;96879.88;5022018;28;20455;-65
2024/03/18 02:32:06;;;;;;;0.38;0.38;;;;;;;5.64;85.08;96848.03;5022045;28;20075;-67
2024/03/18 02:34:33;;;;;;;0.30;0.30;;;;;;;6.17;84.53;96933.03;5022172;28;20087;-66
2024/03/18 02:36:59;;;;;;;0.30;0.30;;;;;;;5.83;85.80;96884.03;5022346;28;20147;-65
2024/03/18 02:39:26;;;;;;;0.30;0.30;;;;;;;5.86;85.15;96894.31;5022232;28;20123;-65
2024/03/18 02:41:53;;;;;;;0.30;0.30;;;;;;;5.83;85.53;96878.53;5022605;28;20057;-66
2024/03/18 02:44:20;;;;;;;0.30;0.30;;;;;;;5.86;85.69;96897.06;5021554;28;20115;-66
2024/03/18 02:46:47;;;;;;;0.30;0.30;;;;;;;6.16;85.62;96932.22;5022460;28;20058;-66
2024/03/18 02:49:14;;;;;;;0.30;0.30;;;;;;;6.18;84.48;96943.69;5022046;28;20445;-66
2024/03/18 02:51:40;;;;;;;0.30;0.30;;;;;;;6.03;84.69;96932.56;5021857;28;20049;-65
2024/03/18 02:54:06;;;;;;;0.30;0.30;;;;;;;5.96;85.79;96949.63;5021723;28;20049;-67
2024/03/18 02:56:32;;;;;;;0.30;0.30;;;;;;;5.92;84.92;96932.25;5004976;28;20065;-65
2024/03/18 02:58:58;;;;;;;0.30;0.30;;;;;;;5.38;85.26;96844.78;5021641;28;20900;-65
2024/03/18 03:01:24;;;;;;;0.30;0.30;;;;;;;5.64;85.18;96881.00;5021654;28;20050;-65
2024/03/18 03:03:51;;;;;;;0.30;0.30;;;;;;;5.55;85.56;96905.00;5021871;28;20123;-65
2024/03/18 03:06:18;;;;;;;0.30;0.30;;;;;;;5.84;84.50;96948.81;5021850;28;20076;-65
2024/03/18 03:08:45;;;;;;;0.30;0.30;;;;;;;5.70;84.10;96915.34;5021155;28;20515;-65
2024/03/18 03:11:12;;;;;;;0.35;0.35;;;;;;;5.73;84.30;96937.47;5021734;28;20069;-65
2024/03/18 03:13:39;;;;;;;0.30;0.30;;;;;;;5.65;85.31;96987.00;5034559;28;21079;-66
2024/03/18 03:16:09;;;;;;;0.30;0.30;;;;;;;5.62;85.63;96921.75;5057683;28;20507;-67
2024/03/18 03:18:35;;;;;;;0.30;0.30;;;;;;;4.51;85.60;96808.47;5024831;28;20057;-67
2024/03/18 03:21:00;;;;;;;0.30;0.30;;;;;;;5.37;86.08;96925.59;5041362;28;20158;-66
2024/03/18 03:23:27;;;;;;;0.30;0.30;;;;;;;5.43;85.57;96930.53;5024423;28;20102;-66
2024/03/18 03:25:53;;;;;;;0.30;0.30;;;;;;;4.72;84.99;96805.66;5040679;28;20057;-65
2024/03/18 03:28:18;;;;;;;0.30;0.30;;;;;;;5.54;84.71;96931.69;5058186;28;20056;-66
2024/03/18 03:30:44;;;;;;;0.30;0.30;;;;;;;5.58;84.49;96948.31;5041107;28;20053;-65
2024/03/18 03:33:10;;;;;;;0.30;0.30;;;;;;;5.45;84.32;96927.44;5057732;28;20510;-66
2024/03/18 03:35:36;;;;;;;0.30;0.30;;;;;;;5.45;83.34;96938.44;5016204;28;20056;-67
2024/03/18 03:38:02;;;;;;;0.30;0.30;;;;;;;5.27;84.78;96910.34;5024875;28;20140;-66
2024/03/18 03:40:28;;;;;;;0.30;0.30;;;;;;;5.33;84.30;96941.13;5041554;28;20049;-66
2024/03/18 03:42:54;;;;;;;0.30;0.30;;;;;;;5.24;83.81;96941.22;5033318;28;20131;-66
2024/03/18 03:45:24;;;;;;;0.30;0.30;;;;;;;5.30;84.43;96930.81;5024920;28;20056;-66
2024/03/18 03:47:53;;;;;;;0.30;0.30;;;;;;;5.16;84.24;96902.88;5040962;28;20056;-66
2024/03/18 03:50:19;;;;;;;0.20;0.20;;;;;;;5.40;84.05;96919.41;5057369;28;20056;-66
2024/03/18 03:52:45;;;;;;;0.30;0.30;;;;;;;4.84;84.75;96835.09;5023853;28;20052;-65
2024/03/18 03:55:12;;;;;;;0.30;0.30;;;;;;;5.36;84.99;96891.03;5023716;28;20053;-66
2024/03/18 03:57:38;;;;;;;0.30;0.30;;;;;;;4.96;84.32;96876.28;5057046;28;20102;-66
2024/03/18 04:00:11;;;;;;;0.30;0.30;;;;;;;5.22;83.50;96901.50;5057151;28;20107;-66
2024/03/18 04:02:37;;;;;;;0.30;0.30;;;;;;;5.25;83.19;96940.09;5040465;28;20526;-65
2024/03/18 04:05:06;;;;;;;0.30;0.30;;;;;;;4.68;84.35;96856.84;5057090;28;20064;-65
2024/03/18 04:07:32;;;;;;;0.30;0.30;;;;;;;4.96;85.38;96887.25;5057061;28;20083;-65
2024/03/18 04:09:58;;;;;;;0.30;0.30;;;;;;;4.17;85.82;96784.06;5036850;28;20816;-65
2024/03/18 04:12:24;;;;;;;0.30;0.30;;;;;;;5.07;85.25;96916.72;5072797;28;20059;-67
2024/03/18 04:14:49;;;;;;;0.30;0.30;;;;;;;5.12;85.39;96915.69;5060573;28;20057;-65
2024/03/18 04:17:16;;;;;;;0.30;0.30;;;;;;;5.20;83.84;96934.03;5060936;28;20092;-66
2024/03/18 04:19:42;;;;;;;0.30;0.30;;;;;;;5.25;84.09;96922.81;5061030;28;20065;-66
2024/03/18 04:22:09;;;;;;;0.30;0.30;;;;;;;5.16;83.88;96930.31;5044070;28;20127;-66
2024/03/18 04:24:35;;;;;;;0.30;0.30;;;;;;;4.90;82.85;96888.63;5059921;28;20059;-67
2024/03/18 04:27:01;;;;;;;0.30;0.30;;;;;;;4.79;82.77;96887.44;5060357;28;20139;-66
2024/03/18 04:29:28;;;;;;;0.30;0.30;;;;;;;5.01;82.26;96933.72;5060441;28;20546;-66
2024/03/18 04:31:53;;;;;;;0.30;0.30;;;;;;;5.05;82.73;96918.97;5043558;28;20056;-66
2024/03/18 04:34:19;;;;;;;0.30;0.30;;;;;;;5.12;81.61;96934.91;5060227;28;20056;-66
2024/03/18 04:36:45;;;;;;;0.30;0.30;;;;;;;5.12;81.61;96929.41;5043385;28;20466;-67
2024/03/18 04:39:11;;;;;;;0.30;0.30;;;;;;;5.16;81.74;96924.84;5059854;28;20094;-66
2024/03/18 04:41:36;;;;;;;0.30;0.30;;;;;;;5.25;81.87;96922.81;5059684;28;20106;-66
2024/03/18 04:44:02;;;;;;;0.30;0.30;;;;;;;5.30;79.53;96936.31;5043691;28;20059;-66
2024/03/18 04:46:29;;;;;;;0.30;0.30;;;;;;;5.16;81.20;96939.38;5060029;28;20588;-66
2024/03/18 04:48:54;;;;;;;0.30;0.30;;;;;;;5.19;81.31;96919.47;5043366;28;20470;-67
2024/03/18 04:51:20;;;;;;;0.30;0.30;;;;;;;5.42;81.65;96950.88;5043543;28;20098;-66
2024/03/18 04:53:46;;;;;;;0.30;0.30;;;;;;;5.17;81.40;96959.41;5059935;28;20053;-66
2024/03/18 04:56:11;;;;;;;0.35;0.35;;;;;;;5.26;82.27;96946.38;5060767;28;20064;-66
2024/03/18 04:58:37;;;;;;;0.30;0.30;;;;;;;5.43;81.84;96924.22;5060687;28;20507;-65
2024/03/18 05:01:03;;;;;;;0.30;0.30;;;;;;;5.06;80.61;96884.09;5060298;28;20053;-66
2024/03/18 05:03:29;;;;;;;0.30;0.30;;;;;;;5.53;79.10;96962.25;5059764;28;20498;-65
2024/03/18 05:05:55;;;;;;;0.30;0.30;;;;;;;5.01;78.72;96895.28;5076806;28;20113;-66
2024/03/18 05:08:21;;;;;;;0.30;0.30;;;;;;;5.50;79.54;96929.97;5063348;28;20136;-65
2024/03/18 05:10:47;;;;;;;0.30;0.30;;;;;;;5.75;78.92;96954.38;5046909;28;20084;-65
2024/03/18 05:13:13;;;;;;;0.40;0.40;;;;;;;5.67;79.31;96888.56;5072384;28;20080;-65
2024/03/18 05:15:39;;;;;;;0.30;0.30;;;;;;;6.11;78.60;96937.16;5083764;28;20514;-66
2024/03/18 05:18:05;;;;;;;0.30;0.30;;;;;;;6.13;77.29;96951.38;5083711;28;20059;-66
2024/03/18 05:20:30;;;;;;;0.30;0.30;;;;;;;6.10;75.33;96939.09;5083922;28;20048;-67
2024/03/18 05:22:56;;;;;;;0.40;0.40;;;;;;;6.25;76.71;96939.53;5083944;28;20505;-67
2024/03/18 05:25:23;;;;;;;0.30;0.30;;;;;;;6.37;75.16;96937.59;5078126;28;20048;-71
2024/03/18 05:27:48;;;;;;;0.30;0.30;;;;;;;6.56;74.63;96940.53;5058349;28;20071;-69
2024/03/18 05:30:14;;;;;;;0.30;0.30;;;;;;;6.34;72.91;96894.25;5062420;28;20056;-62
2024/03/18 05:32:40;;;;;;;0.30;0.30;;;;;;;6.67;72.26;96947.16;5059351;28;20456;-68
2024/03/18 05:35:07;;;;;;;0.30;0.30;;;;;;;6.44;72.64;96891.06;5045356;28;20059;-64
2024/03/18 05:37:33;;;;;;;0.40;0.40;;;;;;;6.91;71.98;96946.28;5062057;28;20412;-62
2024/03/18 05:40:04;;;;;;;0.35;0.35;;;;;;;6.61;72.90;96866.00;5046014;28;20118;-65
2024/03/18 05:42:33;;;;;;;0.40;0.40;;;;;;;7.16;71.32;96943.09;5062709;28;20554;-64
2024/03/18 05:44:59;;;;;;;0.40;0.40;;;;;;;7.27;69.65;96952.47;5063144;28;20412;-63
2024/03/18 05:47:25;;;;;;;0.40;0.40;;;;;;;7.00;69.76;96889.94;5061953;28;20056;-66
2024/03/18 05:49:52;;;;;;;0.40;0.40;;;;;;;7.17;70.06;96884.13;5063048;28;20059;-65
2024/03/18 05:52:17;;;;;;;0.40;0.40;;;;;;;7.81;67.33;96946.47;5062211;28;20044;-65
2024/03/18 05:54:43;;;;;;;0.40;0.40;;;;;;;8.17;66.49;96943.44;5063022;28;20105;-62
2024/03/18 05:57:09;;;;;;;0.40;0.40;;;;;;;5.57;65.46;96490.69;5062252;28;20534;-64
2024/03/18 05:59:35;;;;;;;0.40;0.40;;;;;;;8.58;64.83;96940.09;5025600;28;20056;-62
2024/03/18 06:02:00;;;;;;;0.40;0.40;;;;;;;8.89;64.02;96937.25;5036985;28;20091;-64
2024/03/18 06:04:26;;;;;;;0.40;0.40;;;;;;;9.15;63.09;96924.38;5025831;28;20084;-65
2024/03/18 06:06:52;;;;;;;0.43;0.43;;;;;;;8.68;62.32;96821.59;5041680;28;20057;-61
2024/03/18 06:09:18;;;;;;;0.50;0.50;;;;;;;9.57;62.69;96924.41;5041164;28;20065;-64
2024/03/18 06:11:43;;;;;;;0.50;0.50;;;;;;;9.78;61.26;96922.06;5041424;28;20053;-64
2024/03/18 06:14:11;;;;;;;0.50;0.50;;;;;;;9.75;60.28;96922.78;5029145;28;20049;-65
2024/03/18 06:16:37;;;;;;;0.50;0.50;;;;;;;9.55;60.91;96838.25;5022287;28;20523;-62
2024/03/18 06:19:04;;;;;;;0.50;0.50;;;;;;;10.02;60.66;96905.06;5021785;28;20547;-65
2024/03/18 06:21:39;;;;;;;0.50;0.50;;;;;;;10.16;58.94;96907.31;5021910;28;20148;-65
2024/03/18 06:24:09;;;;;;;0.50;0.50;;;;;;;9.78;60.90;96902.69;5022353;28;20053;-61
2024/03/18 06:26:35;;;;;;;0.50;0.50;;;;;;;10.21;59.08;96888.41;5022172;28;20396;-61
2024/03/18 06:29:01;;;;;;;0.40;0.40;;;;;;;10.61;58.98;96899.72;5021435;28;20057;-62
2024/03/18 06:31:27;;;;;;;0.50;0.50;;;;;;;10.96;57.93;96893.84;5005268;28;20072;-66
2024/03/18 06:33:56;;;;;;;0.50;0.50;;;;;;;11.27;57.49;96889.88;5021896;28;20524;-61
2024/03/18 06:36:21;;;;;;;0.50;0.50;;;;;;;9.65;55.07;96577.72;5021797;28;20482;-60
2024/03/18 06:38:49;;;;;;;0.50;0.50;;;;;;;11.84;53.10;96883.75;5021656;28;20053;-63
2024/03/18 06:41:15;;;;;;;0.50;0.50;;;;;;;12.21;52.25;96895.59;5022065;28;20049;-65
2024/03/18 06:43:41;;;;;;;0.50;0.50;;;;;;;11.16;50.73;96701.22;5018911;28;20433;-60
2024/03/18 06:46:09;;;;;;;0.50;0.50;;;;;;;12.13;51.80;96838.41;5025316;28;20178;-65
2024/03/18 06:48:41;;;;;;;0.57;0.57;;;;;;;12.34;51.60;96835.81;5040999;28;20404;-61
2024/03/18 06:51:16;;;;;;;0.60;0.60;;;;;;;12.88;51.33;96882.94;5040880;28;20053;-62
2024/03/18 06:53:42;;;;;;;0.60;0.60;;;;;;;12.47;51.52;96792.59;5040397;28;20045;-67
2024/03/18 06:56:08;;;;;;;0.60;0.60;;;;;;;13.30;49.71;96880.41;5041029;28;20255;-62
2024/03/18 06:58:38;;;;;;;0.60;0.60;;;;;;;13.44;48.80;96883.25;5040982;28;20494;-62
2024/03/18 07:01:05;;;;;;;0.60;0.60;;;;;;;12.93;47.92;96754.69;5037097;28;20045;-70
2024/03/18 07:03:31;;;;;;;0.60;0.60;;;;;;;13.65;49.13;96880.53;5027503;28;20518;-68
2024/03/18 07:05:57;;;;;;;0.60;0.60;;;;;;;13.32;49.59;96839.09;5039013;28;20128;-73
2024/03/18 07:08:22;;;;;;;0.60;0.60;;;;;;;13.18;50.73;96872.41;5022107;28;20068;-64
2024/03/18 07:10:48;;;;;;;0.60;0.60;;;;;;;12.95;51.32;96802.38;5039475;28;20060;-68
2024/03/18 07:13:14;;;;;;;0.60;0.60;;;;;;;13.22;50.73;96828.72;5039612;28;20784;-66
2024/03/18 07:15:41;;;;;;;0.60;0.60;;;;;;;13.89;48.64;96872.59;5038314;28;20051;-66
2024/03/18 07:18:07;;;;;;;0.60;0.60;;;;;;;13.51;48.32;96769.16;5039217;28;20056;-64
2024/03/18 07:20:33;;;;;;;0.60;0.60;;;;;;;14.03;47.70;96816.91;5044551;28;20059;-69
2024/03/18 07:22:58;;;;;;;0.70;0.70;;;;;;;14.14;46.72;96782.31;5044017;28;20056;-64
2024/03/18 07:25:24;;;;;;;0.70;0.70;;;;;;;14.78;43.80;96844.31;5060242;28;20048;-67
2024/03/18 07:27:50;;;;;;;0.60;0.60;;;;;;;14.66;42.65;96845.53;5051449;28;20056;-64
2024/03/18 07:30:18;;;;;;;0.60;0.60;;;;;;;14.37;42.15;96770.75;5040532;28;20511;-69
2024/03/18 07:32:44;;;;;;;0.60;0.60;;;;;;;14.28;40.54;96787.88;5029220;28;20048;-63
2024/03/18 07:35:14;;;;;;;0.60;0.60;;;;;;;14.71;41.45;96834.00;5055007;28;20040;-64
2024/03/18 07:37:42;;;;;;;0.70;0.70;;;;;;;12.92;41.34;96513.25;5059494;28;20056;-67
2024/03/18 07:40:11;;;;;;;0.70;0.70;;;;;;;15.18;40.37;96815.88;5043185;28;20059;-70
2024/03/18 07:42:40;;;;;;;0.60;0.60;;;;;;;14.63;39.80;96695.00;5060751;28;20071;-72
2024/03/18 07:45:09;;;;;;;0.60;0.60;;;;;;;14.65;38.90;96673.88;5059598;28;20052;-66
2024/03/18 07:47:35;;;;;;;0.70;0.70;;;;;;;13.04;38.75;96449.72;5042879;28;20052;-64
2024/03/18 07:50:05;;;;;;;0.70;0.70;;;;;;;14.52;38.95;96621.78;5067958;28;20182;-67
2024/03/18 07:52:33;;;;;;;0.70;0.70;;;;;;;15.37;39.15;96770.72;5060098;28;20557;-62
2024/03/18 07:55:00;;;;;;;0.70;0.70;;;;;;;15.63;39.30;96814.06;5059155;28;20067;-66
2024/03/18 07:57:27;;;;;;;0.80;0.80;;;;;;;15.83;39.86;96804.75;5058483;28;20064;-68
2024/03/18 07:59:54;;;;;;;0.70;0.70;;;;;;;15.85;38.52;96796.75;5059617;28;20118;-68
2024/03/18 08:02:19;;;;;;;0.70;0.70;;;;;;;15.77;39.48;96781.25;5043130;28;20052;-64
2024/03/18 08:04:45;;;;;;;0.70;0.70;;;;;;;15.96;37.98;96783.50;5043302;28;20110;-65
2024/03/18 08:07:11;;;;;;;0.70;0.70;;;;;;;16.13;38.72;96787.34;5041943;28;20523;-66
2024/03/18 08:09:37;;;;;;;0.70;0.70;;;;;;;16.48;37.54;96790.66;5059902;28;20060;-69
2024/03/18 08:12:03;;;;;;;0.70;0.70;;;;;;;16.41;37.74;96790.66;5059954;28;20561;-68
2024/03/18 08:14:29;;;;;;;0.73;0.73;;;;;;;15.87;38.21;96704.94;5043156;28;20056;-68
2024/03/18 08:16:55;;;;;;;0.70;0.70;;;;;;;16.36;37.57;96774.34;5060182;28;20056;-67
2024/03/18 08:19:21;;;;;;;0.80;0.80;;;;;;;16.38;37.96;96829.84;5059125;28;20048;-63
2024/03/18 08:21:46;;;;;;;0.70;0.70;;;;;;;16.47;37.67;96771.50;5059661;28;20059;-68
2024/03/18 08:24:12;;;;;;;0.70;0.70;;;;;;;16.43;38.84;96774.28;5051011;28;20079;-68
2024/03/18 08:26:38;;;;;;;0.73;0.73;;;;;;;15.76;38.50;96640.00;5058675;28;20053;-67
2024/03/18 08:29:04;;;;;;;0.73;0.73;;;;;;;16.44;38.45;96775.06;5059390;28;20206;-66
2024/03/18 08:31:29;;;;;;;0.70;0.70;;;;;;;16.28;38.33;96758.84;5051882;28;20061;-64
2024/03/18 08:33:56;;;;;;;0.70;0.70;;;;;;;16.61;38.46;96780.50;5057153;28;20550;-65
2024/03/18 08:36:25;;;;;;;0.70;0.70;;;;;;;16.42;39.19;96783.84;5038749;28;20060;-69
2024/03/18 08:38:51;;;;;;;0.70;0.70;;;;;;;16.52;39.96;96783.00;5056457;28;20147;-64
2024/03/18 08:41:18;;;;;;;0.73;0.73;;;;;;;16.02;39.19;96672.88;5024219;28;20099;-64
2024/03/18 08:43:44;;;;;;;0.70;0.70;;;;;;;16.34;38.95;96748.03;5043932;28;20056;-62
2024/03/18 08:46:10;;;;;;;0.70;0.70;;;;;;;16.68;38.98;96768.44;5043920;28;20052;-62
2024/03/18 08:48:35;;;;;;;0.70;0.70;;;;;;;16.51;39.84;96761.84;5052162;28;20480;-62
2024/03/18 08:51:02;;;;;;;0.70;0.70;;;;;;;16.24;38.68;96720.97;5048110;28;20053;-68
2024/03/18 08:53:28;;;;;;;0.70;0.70;;;;;;;16.69;38.73;96774.84;5064886;28;20477;-68
2024/03/18 08:55:55;;;;;;;0.70;0.70;;;;;;;16.63;39.15;96762.53;5064449;28;20056;-67
2024/03/18 08:58:21;;;;;;;0.70;0.70;;;;;;;15.92;39.51;96671.00;5046609;28;20057;-64
2024/03/18 09:00:48;;;;;;;0.65;0.65;;;;;;;16.58;38.95;96764.56;5063657;28;20056;-68
2024/03/18 09:03:15;;;;;;;0.70;0.70;;;;;;;16.74;39.68;96754.81;5063271;28;20472;-64
2024/03/18 09:05:40;;;;;;;0.70;0.70;;;;;;;16.93;38.78;96745.78;5046343;28;20549;-67
2024/03/18 09:08:07;;;;;;;0.70;0.70;;;;;;;16.88;39.12;96757.44;5046038;28;20084;-64
2024/03/18 09:10:32;;;;;;;0.70;0.70;;;;;;;16.11;38.59;96645.25;5046672;28;20075;-68
2024/03/18 09:12:58;;;;;;;0.70;0.70;;;;;;;16.63;38.70;96713.75;5063358;28;20048;-67
2024/03/18 09:15:25;;;;;;;0.80;0.80;;;;;;;17.08;39.12;96749.97;5077888;28;20060;-64
2024/03/18 09:17:51;;;;;;;0.80;0.80;;;;;;;16.51;38.56;96733.88;5064058;28;20055;-66
2024/03/18 09:20:17;;;;;;;0.70;0.70;;;;;;;16.19;39.42;96705.44;5062511;28;20543;-74
2024/03/18 09:22:46;;;;;;;0.80;0.80;;;;;;;16.53;39.60;96756.59;5062426;28;20064;-68
2024/03/18 09:25:13;;;;;;;0.70;0.70;;;;;;;15.76;38.76;96606.50;5063035;28;20055;-72
2024/03/18 09:27:38;;;;;;;0.70;0.70;;;;;;;16.89;38.27;96751.41;5045842;28;20052;-66
2024/03/18 09:30:05;;;;;;;0.60;0.60;;;;;;;16.93;37.92;96762.56;5061971;28;20067;-69
2024/03/18 09:32:31;;;;;;;0.70;0.70;;;;;;;16.96;39.00;96744.94;5044251;28;20487;-74
2024/03/18 09:34:57;;;;;;;0.80;0.80;;;;;;;17.10;38.74;96734.38;5043303;28;20140;-67
2024/03/18 09:37:23;;;;;;;0.85;0.85;;;;;;;15.91;38.41;96563.25;5058647;28;20482;-62
2024/03/18 09:39:49;;;;;;;0.80;0.80;;;;;;;17.12;38.40;96731.91;5062343;28;20044;-62
2024/03/18 09:42:17;;;;;;;0.65;0.65;;;;;;;17.11;38.44;96723.94;5062350;28;20055;-70
2024/03/18 09:44:44;;;;;;;0.70;0.70;;;;;;;17.00;36.41;96720.50;5062281;28;20056;-63
2024/03/18 09:47:19;;;;;;;0.70;0.70;;;;;;;16.65;37.92;96595.88;5062053;28;20563;-68
2024/03/18 09:49:46;;;;;;;0.70;0.70;;;;;;;17.50;37.05;96707.38;5044491;28;20554;-68
2024/03/18 09:52:14;;;;;;;0.70;0.70;;;;;;;17.02;37.70;96623.72;5062475;28;20059;-68
2024/03/18 09:54:41;;;;;;;0.68;0.68;;;;;;;17.79;36.73;96730.94;5062297;28;20056;-74
2024/03/18 09:57:12;;;;;;;0.70;0.70;;;;;;;17.26;37.47;96649.75;5045501;28;20118;-66
2024/03/18 09:59:38;;;;;;;0.70;0.70;;;;;;;17.67;35.98;96678.31;5062671;28;20056;-66
2024/03/18 10:02:04;;;;;;;0.70;0.70;;;;;;;17.83;36.44;96706.47;5062667;28;20055;-62
2024/03/18 10:04:30;;;;;;;0.70;0.70;;;;;;;16.56;37.02;96506.94;5061451;28;20550;-73
2024/03/18 10:06:56;;;;;;;0.80;0.80;;;;;;;17.78;37.06;96696.53;5060959;28;20127;-64
2024/03/18 10:09:26;;;;;;;0.70;0.70;;;;;;;17.51;36.28;96653.78;5060971;28;20341;-66
2024/03/18 10:11:52;;;;;;;0.70;0.70;;;;;;;17.51;35.38;96644.59;5061795;28;20052;-65
2024/03/18 10:14:18;;;;;;;0.70;0.70;;;;;;;17.10;36.35;96588.03;5045670;28;20059;-64
2024/03/18 10:16:43;;;;;;;0.70;0.70;;;;;;;17.04;36.12;96556.91;5060959;28;20052;-68
2024/03/18 10:19:17;;;;;;;0.80;0.80;;;;;;;17.19;37.08;96543.47;5044575;28;20573;-71
2024/03/18 10:21:43;;;;;;;0.80;0.80;;;;;;;18.06;36.30;96631.59;5041282;28;20472;-68
2024/03/18 10:24:14;;;;;;;0.80;0.80;;;;;;;18.42;34.53;96679.38;5042368;28;20071;-69
2024/03/18 10:26:40;;;;;;;0.70;0.70;;;;;;;18.30;36.66;96671.59;5060904;28;20064;-75
2024/03/18 10:29:06;;;;;;;0.80;0.80;;;;;;;17.87;36.51;96587.50;5061345;28;20052;-64
2024/03/18 10:31:37;;;;;;;0.70;0.70;;;;;;;16.31;35.66;96358.31;5061185;28;20048;-70
2024/03/18 10:34:07;;;;;;;0.70;0.70;;;;;;;18.09;34.34;96599.88;5061327;28;20056;-69
2024/03/18 10:36:36;;;;;;;0.70;0.70;;;;;;;17.47;34.76;96503.81;5060609;28;20439;-69
2024/03/18 10:39:07;;;;;;;0.77;0.77;;;;;;;18.56;35.53;96651.03;5060935;28;20071;-64
2024/03/18 10:41:38;;;;;;;0.70;0.70;;;;;;;18.09;35.62;96576.66;5044423;28;20064;-74
2024/03/18 10:44:23;;;;;;;0.80;0.80;;;;;;;18.88;35.61;96644.75;5061156;28;20057;-73
2024/03/18 10:46:50;;;;;;;0.70;0.70;;;;;;;18.64;33.86;96627.22;5056389;28;20076;-78
2024/03/18 10:49:20;;;;;;;0.80;0.80;;;;;;;18.96;32.95;96638.56;5033195;28;20052;-71
2024/03/18 10:51:48;;;;;;;0.80;0.80;;;;;;;18.97;33.82;96645.75;5059859;28;20063;-66
2024/03/18 10:54:15;;;;;;;0.80;0.80;;;;;;;18.84;33.21;96644.81;5058309;28;20072;-69
2024/03/18 10:56:46;;;;;;;0.70;0.70;;;;;;;18.87;33.77;96640.38;5042497;28;20063;-69
2024/03/18 10:59:14;;;;;;;0.80;0.80;;;;;;;19.14;34.12;96641.75;5042786;28;20470;-63
2024/03/18 11:01:40;;;;;;;0.80;0.80;;;;;;;18.91;33.02;96588.56;5057039;28;20979;-77
2024/03/18 11:04:20;;;;;;;0.80;0.80;;;;;;;19.21;32.40;96609.91;5056741;28;20056;-74
2024/03/18 11:06:51;;;;;;;0.85;0.85;;;;;;;18.55;33.37;96497.19;5044955;28;20056;-70
2024/03/18 11:09:18;;;;;;;0.70;0.70;;;;;;;19.72;31.57;96608.28;5060988;28;20064;-72
2024/03/18 11:11:44;;;;;;;0.80;0.80;;;;;;;19.95;32.50;96603.22;5044100;28;20052;-71
2024/03/18 11:14:13;;;;;;;0.90;0.90;;;;;;;19.64;32.47;96512.13;5044477;28;20079;-71
2024/03/18 11:16:45;;;;;;;0.80;0.80;;;;;;;19.44;32.79;96503.81;5060439;28;20456;-71
2024/03/18 11:19:20;;;;;;;0.90;0.90;;;;;;;20.43;31.96;96607.97;5061041;28;20703;-71
2024/03/18 11:21:57;;;;;;;0.80;0.80;;;;;;;20.21;31.89;96601.34;5043957;28;20129;-72
2024/03/18 11:24:23;;;;;;;0.90;0.90;;;;;;;20.06;32.02;96597.34;5044140;28;20067;-72
2024/03/18 11:27:00;;;;;;;0.80;0.80;;;;;;;19.95;32.94;96594.78;5060128;28;20061;-71
2024/03/18 11:29:50;;;;;;;0.80;0.80;;;;;;;19.29;33.49;96525.09;5060764;28;20531;-72
2024/03/18 11:32:16;;;;;;;0.80;0.80;;;;;;;19.78;33.50;96582.00;5060779;28;20118;-72
2024/03/18 11:34:42;;;;;;;0.80;0.80;;;;;;;19.75;32.71;96580.09;5060594;28;20056;-71
2024/03/18 11:37:08;;;;;;;0.80;0.80;;;;;;;19.57;32.93;96546.03;5044009;28;20061;-71